Private Wetterstation Wechselburg
Wetterdaten: Woche 12.09.11 - 18.09.11 (KW37)
Datum Zeit Temp. +2m Bodentemp. Temp.+5cm Temp. Wind Windchill X Diff Temp. Feuchte +2m Feuchte +5cm Sonnenschein Luftdruck Regen Wind Richtung Sonnenschein UV Taupunkt Windchill Windben
12.09.2011 00:00 16,7 C 23,4 C 16,6 C 16,5 C 16,2 C 0,0 C 90 % 94 % 0 % 1007,5 hPa 0,0 l/m 0,6 km/h (0 Bft) W 0,00 h 0,0 UV-I 15,1 C 16,2 C 1,3 km/h (1 Bft)
12.09.2011 01:00 16,1 C 23,3 C 16,1 C 15,9 C 15,6 C 0,0 C 91 % 94 % 0 % 1007,4 hPa 0,0 l/m 2,4 km/h (1 Bft) SW 0,00 h 0,0 UV-I 14,6 C 15,6 C 4,0 km/h (1 Bft)
12.09.2011 02:00 16,0 C 23,1 C 15,8 C 15,8 C 15,4 C 0,0 C 91 % 95 % 0 % 1008,2 hPa 0,0 l/m 6,0 km/h (2 Bft) W-SW 0,00 h 0,0 UV-I 14,4 C 15,4 C 10,3 km/h (2 Bft)
12.09.2011 03:00 15,5 C 22,9 C 15,5 C 15,3 C 15,0 C 0,0 C 90 % 95 % 0 % 1009,0 hPa 0,0 l/m 3,3 km/h (1 Bft) W-SW 0,00 h 0,0 UV-I 13,9 C 15,0 C 4,8 km/h (1 Bft)
12.09.2011 04:00 14,9 C 22,7 C 15,2 C 14,7 C 14,2 C 0,0 C 90 % 95 % 0 % 1009,2 hPa 0,0 l/m 0,6 km/h (0 Bft) N 0,00 h 0,0 UV-I 13,4 C 14,2 C 1,8 km/h (1 Bft)
12.09.2011 05:00 14,5 C 22,6 C 15,0 C 14,4 C 14,0 C 0,0 C 92 % 95 % 0 % 1009,8 hPa 0,7 l/m 1,4 km/h (1 Bft) W-SW 0,00 h 0,0 UV-I 13,2 C 14,0 C 3,0 km/h (1 Bft)
12.09.2011 06:00 14,7 C 22,3 C 14,7 C 14,6 C 14,2 C 0,0 C 90 % 95 % 0 % 1010,7 hPa 0,0 l/m 2,9 km/h (1 Bft) S 0,00 h 0,0 UV-I 13,1 C 14,2 C 3,8 km/h (1 Bft)
12.09.2011 07:00 15,2 C 22,1 C 15,0 C 15,6 C 15,6 C 0,4 C 88 % 95 % 10 % 1011,2 hPa 0,0 l/m 4,3 km/h (1 Bft) S 0,00 h 0,0 UV-I 13,3 C 15,6 C 6,0 km/h (2 Bft)
12.09.2011 08:00 15,8 C 22,0 C 15,5 C 16,2 C 16,2 C 0,4 C 86 % 94 % 12 % 1011,7 hPa 0,0 l/m 4,6 km/h (1 Bft) SW 0,00 h 0,0 UV-I 13,5 C 16,2 C 7,0 km/h (2 Bft)
12.09.2011 09:00 16,7 C 21,8 C 16,2 C 17,8 C 17,8 C 1,1 C 82 % 92 % 29 % 1012,1 hPa 0,0 l/m 6,0 km/h (2 Bft) SW 0,00 h 0,0 UV-I 13,7 C 17,8 C 9,3 km/h (2 Bft)
12.09.2011 10:00 17,6 C 21,7 C 17,1 C 19,1 C 19,1 C 1,5 C 78 % 84 % 41 % 1012,5 hPa 0,0 l/m 7,1 km/h (2 Bft) W-SW 0,00 h 0,0 UV-I 13,6 C 19,1 C 9,5 km/h (2 Bft)
12.09.2011 11:00 18,6 C 21,6 C 17,9 C 20,3 C 20,3 C 1,7 C 74 % 79 % 46 % 1012,8 hPa 0,0 l/m 6,2 km/h (2 Bft) SW 0,00 h 0,0 UV-I 13,8 C 20,3 C 8,1 km/h (2 Bft)
12.09.2011 12:00 19,5 C 21,6 C 18,8 C 22,0 C 22,0 C 2,5 C 69 % 74 % 66 % 1012,4 hPa 0,0 l/m 6,9 km/h (2 Bft) S 0,08 h 0,1 UV-I 13,7 C 22,0 C 8,9 km/h (2 Bft)
12.09.2011 13:00 20,8 C 21,6 C 19,5 C 24,0 C 24,0 C 3,2 C 60 % 68 % 83 % 1012,4 hPa 0,0 l/m 6,4 km/h (2 Bft) S 0,58 h 0,1 UV-I 12,8 C 24,0 C 8,4 km/h (2 Bft)
12.09.2011 14:00 21,9 C 21,6 C 22,7 C 25,6 C 25,6 C 3,7 C 56 % 59 % 95 % 1011,9 hPa 0,0 l/m 5,8 km/h (2 Bft) S 0,92 h 0,0 UV-I 12,6 C 25,6 C 7,4 km/h (2 Bft)
12.09.2011 15:00 22,5 C 21,6 C 26,7 C 25,5 C 25,5 C 3,0 C 53 % 47 % 78 % 1011,3 hPa 0,0 l/m 7,2 km/h (2 Bft) S-SO 0,17 h 0,0 UV-I 12,4 C 25,5 C 8,5 km/h (2 Bft)
12.09.2011 16:00 22,9 C 21,7 C 25,7 C 26,1 C 26,1 C 3,1 C 52 % 48 % 83 % 1011,0 hPa 0,0 l/m 5,5 km/h (1 Bft) W-SW 0,25 h 0,0 UV-I 12,6 C 26,1 C 8,9 km/h (2 Bft)
12.09.2011 17:00 21,9 C 21,8 C 23,4 C 25,6 C 25,6 C 3,7 C 54 % 52 % 98 % 1011,2 hPa 0,0 l/m 4,7 km/h (1 Bft) S 1,00 h 0,0 UV-I 12,3 C 25,6 C 6,5 km/h (2 Bft)
12.09.2011 18:00 21,2 C 21,9 C 21,6 C 24,5 C 24,5 C 3,3 C 57 % 58 % 86 % 1011,0 hPa 0,0 l/m 3,5 km/h (1 Bft) SW 1,00 h 0,0 UV-I 12,5 C 24,5 C 7,6 km/h (2 Bft)
12.09.2011 19:00 19,8 C 21,9 C 19,9 C 20,3 C 20,0 C 0,6 C 62 % 64 % 14 % 1010,8 hPa 0,0 l/m 2,4 km/h (1 Bft) SW 0,42 h 0,0 UV-I 12,3 C 20,0 C 3,8 km/h (1 Bft)
12.09.2011 20:00 18,7 C 21,9 C 18,7 C 18,4 C 17,9 C 0,0 C 65 % 68 % 0 % 1010,5 hPa 0,0 l/m 2,9 km/h (1 Bft) S-SO 0,00 h 0,0 UV-I 12,0 C 17,9 C 4,8 km/h (1 Bft)
12.09.2011 21:00 18,6 C 21,9 C 18,4 C 18,3 C 17,9 C 0,0 C 64 % 67 % 0 % 1010,9 hPa 0,0 l/m 3,4 km/h (1 Bft) S 0,00 h 0,0 UV-I 11,7 C 17,9 C 4,4 km/h (1 Bft)
12.09.2011 22:00 18,1 C 21,9 C 18,1 C 17,8 C 17,3 C 0,0 C 66 % 68 % 0 % 1011,2 hPa 0,0 l/m 2,8 km/h (1 Bft) S 0,00 h 0,0 UV-I 11,6 C 17,3 C 4,3 km/h (1 Bft)
12.09.2011 23:00 18,0 C 21,9 C 18,1 C 17,8 C 17,4 C 0,0 C 67 % 69 % 0 % 1010,9 hPa 0,0 l/m 2,9 km/h (1 Bft) SO 0,00 h 0,0 UV-I 11,7 C 17,4 C 5,8 km/h (2 Bft)
13.09.2011 00:00 18,1 C 21,9 C 18,1 C 17,9 C 17,4 C 0,0 C 68 % 70 % 0 % 1011,0 hPa 0,0 l/m 2,9 km/h (1 Bft) SW 0,00 h 0,0 UV-I 12,1 C 17,4 C 4,1 km/h (1 Bft)
13.09.2011 01:00 17,6 C 21,8 C 17,8 C 17,5 C 17,1 C 0,0 C 71 % 72 % 0 % 1011,1 hPa 0,0 l/m 2,9 km/h (1 Bft) SW 0,00 h 0,0 UV-I 12,2 C 17,1 C 4,3 km/h (1 Bft)
13.09.2011 02:00 17,4 C 21,8 C 17,5 C 17,2 C 16,7 C 0,0 C 73 % 75 % 0 % 1010,9 hPa 0,0 l/m 2,3 km/h (1 Bft) SW 0,00 h 0,0 UV-I 12,5 C 16,7 C 4,1 km/h (1 Bft)
13.09.2011 03:00 17,1 C 21,7 C 17,3 C 16,9 C 16,4 C 0,0 C 75 % 76 % 0 % 1010,7 hPa 0,0 l/m 2,4 km/h (1 Bft) SO 0,00 h 0,0 UV-I 12,6 C 16,4 C 3,2 km/h (1 Bft)
13.09.2011 04:00 16,8 C 21,7 C 17,0 C 16,6 C 16,2 C 0,0 C 78 % 79 % 0 % 1010,8 hPa 0,0 l/m 2,0 km/h (1 Bft) S 0,00 h 0,0 UV-I 12,8 C 16,2 C 2,5 km/h (1 Bft)
13.09.2011 05:00 17,0 C 21,7 C 17,1 C 17,0 C 17,0 C 0,0 C 78 % 80 % 0 % 1010,8 hPa 0,0 l/m 2,7 km/h (1 Bft) S-SO 0,00 h 0,0 UV-I 13,2 C 17,0 C 3,9 km/h (1 Bft)
13.09.2011 06:00 17,2 C 21,7 C 17,3 C 17,1 C 16,9 C 0,0 C 78 % 80 % 0 % 1010,9 hPa 0,0 l/m 2,3 km/h (1 Bft) S-SW 0,00 h 0,0 UV-I 13,4 C 16,9 C 3,8 km/h (1 Bft)
13.09.2011 07:00 17,4 C 21,7 C 17,3 C 17,4 C 17,4 C 0,1 C 79 % 81 % 2 % 1011,0 hPa 0,0 l/m 2,6 km/h (1 Bft) S-SW 0,00 h 0,0 UV-I 13,7 C 17,4 C 4,0 km/h (1 Bft)
13.09.2011 08:00 17,9 C 21,7 C 17,7 C 18,4 C 18,4 C 0,6 C 79 % 81 % 15 % 1011,5 hPa 0,0 l/m 2,3 km/h (1 Bft) O-SO 0,00 h 1,3 UV-I 14,2 C 18,4 C 3,1 km/h (1 Bft)
13.09.2011 09:00 19,0 C 21,6 C 18,5 C 20,2 C 20,2 C 1,2 C 77 % 80 % 33 % 1011,6 hPa 0,0 l/m 2,2 km/h (1 Bft) S 0,00 h 1,6 UV-I 14,8 C 20,2 C 2,3 km/h (1 Bft)
13.09.2011 10:00 20,2 C 21,6 C 19,5 C 22,0 C 22,0 C 1,8 C 73 % 77 % 47 % 1011,5 hPa 0,0 l/m 5,6 km/h (1 Bft) W-SW 0,00 h 0,0 UV-I 15,2 C 22,0 C 10,5 km/h (2 Bft)
13.09.2011 11:00 21,1 C 21,7 C 20,4 C 22,8 C 22,8 C 1,7 C 68 % 72 % 44 % 1011,3 hPa 0,0 l/m 5,7 km/h (1 Bft) O-SO 0,00 h 0,1 UV-I 15,1 C 22,8 C 4,3 km/h (1 Bft)
13.09.2011 12:00 21,4 C 21,7 C 20,6 C 22,9 C 22,9 C 1,5 C 67 % 72 % 38 % 1011,0 hPa 0,0 l/m 4,5 km/h (1 Bft) SW 0,00 h 0,0 UV-I 15,0 C 22,9 C 6,3 km/h (2 Bft)
13.09.2011 13:00 22,2 C 21,7 C 21,2 C 25,4 C 25,4 C 3,1 C 67 % 71 % 79 % 1010,6 hPa 0,0 l/m 4,6 km/h (1 Bft) SW 0,50 h 0,1 UV-I 15,8 C 25,4 C 6,5 km/h (2 Bft)
13.09.2011 14:00 23,0 C 21,9 C 23,7 C 25,1 C 25,1 C 2,1 C 63 % 65 % 55 % 1010,4 hPa 0,0 l/m 9,7 km/h (2 Bft) W-SW 0,00 h 0,0 UV-I 15,7 C 25,1 C 15,7 km/h (3 Bft)
13.09.2011 15:00 23,4 C 22,1 C 25,1 C 25,4 C 25,4 C 2,0 C 62 % 60 % 53 % 1010,2 hPa 0,0 l/m 8,3 km/h (2 Bft) SW 0,08 h 0,0 UV-I 15,8 C 25,4 C 11,6 km/h (2 Bft)
13.09.2011 16:00 23,8 C 22,2 C 24,5 C 25,5 C 25,5 C 1,7 C 60 % 60 % 44 % 1010,2 hPa 0,0 l/m 7,5 km/h (2 Bft) W-SW 0,00 h 0,0 UV-I 15,5 C 25,5 C 10,1 km/h (2 Bft)
13.09.2011 17:00 22,8 C 22,3 C 22,4 C 23,0 C 22,9 C 0,1 C 63 % 66 % 4 % 1009,8 hPa 0,0 l/m 4,6 km/h (1 Bft) S-SO 0,00 h 0,0 UV-I 15,3 C 22,9 C 7,9 km/h (2 Bft)
13.09.2011 18:00 21,9 C 22,4 C 21,4 C 21,9 C 21,8 C 0,0 C 66 % 70 % 0 % 1009,8 hPa 0,0 l/m 5,4 km/h (1 Bft) W-SW 0,00 h 0,0 UV-I 15,3 C 21,8 C 6,8 km/h (2 Bft)
13.09.2011 19:00 20,3 C 22,5 C 20,1 C 20,1 C 19,8 C 0,0 C 74 % 77 % 0 % 1010,2 hPa 0,0 l/m 7,0 km/h (2 Bft) W-SW 0,00 h 0,0 UV-I 15,5 C 19,8 C 9,1 km/h (2 Bft)
13.09.2011 20:00 17,4 C 22,9 C 17,3 C 17,2 C 16,8 C 0,0 C 87 % 90 % 0 % 1010,8 hPa 0,7 l/m 5,6 km/h (1 Bft) W-SW 0,00 h 0,0 UV-I 15,2 C 16,8 C 7,4 km/h (2 Bft)
13.09.2011 21:00 17,1 C 22,8 C 17,0 C 17,1 C 17,0 C 0,0 C 89 % 92 % 0 % 1011,4 hPa 0,0 l/m 3,6 km/h (1 Bft) S-SW 0,00 h 0,0 UV-I 15,2 C 17,0 C 5,2 km/h (1 Bft)
13.09.2011 22:00 17,1 C 22,7 C 17,1 C 17,2 C 17,2 C 0,1 C 89 % 93 % 0 % 1011,4 hPa 0,0 l/m 3,2 km/h (1 Bft) W-SW 0,00 h 0,0 UV-I 15,2 C 17,2 C 4,5 km/h (1 Bft)
13.09.2011 23:00 17,1 C 22,6 C 17,1 C 17,1 C 17,1 C 0,1 C 86 % 90 % 0 % 1011,6 hPa 0,0 l/m 4,4 km/h (1 Bft) W-SW 0,00 h 0,0 UV-I 14,8 C 17,1 C 5,9 km/h (2 Bft)
14.09.2011 00:00 16,8 C 22,4 C 16,7 C 16,8 C 16,7 C 0,0 C 82 % 85 % 0 % 1011,9 hPa 0,0 l/m 4,8 km/h (1 Bft) W-SW 0,00 h 0,0 UV-I 13,7 C 16,7 C 6,6 km/h (2 Bft)
14.09.2011 01:00 15,8 C 22,3 C 16,0 C 15,6 C 15,3 C 0,0 C 81 % 84 % 0 % 1011,9 hPa 0,0 l/m 2,2 km/h (1 Bft) W-SW 0,00 h 0,0 UV-I 12,5 C 15,3 C 2,6 km/h (1 Bft)
14.09.2011 02:00 14,3 C 22,3 C 15,0 C 14,1 C 13,8 C 0,0 C 84 % 86 % 0 % 1012,2 hPa 0,0 l/m 0,6 km/h (0 Bft) N 0,00 h 0,0 UV-I 11,7 C 13,8 C 1,1 km/h (1 Bft)
14.09.2011 03:00 14,2 C 22,2 C 15,0 C 14,2 C 14,2 C 0,1 C 85 % 86 % 0 % 1012,1 hPa 0,0 l/m 1,7 km/h (1 Bft) W-SW 0,00 h 0,0 UV-I 11,8 C 14,2 C 2,8 km/h (1 Bft)
14.09.2011 04:00 14,3 C 22,1 C 14,8 C 14,0 C 13,5 C 0,0 C 82 % 84 % 0 % 1012,4 hPa 0,0 l/m 2,0 km/h (1 Bft) SO 0,00 h 0,0 UV-I 11,4 C 13,5 C 2,3 km/h (1 Bft)
14.09.2011 05:00 13,5 C 21,9 C 14,3 C 13,2 C 12,5 C 0,0 C 83 % 83 % 0 % 1012,8 hPa 0,0 l/m 1,2 km/h (1 Bft) NO 0,00 h 0,0 UV-I 10,8 C 12,5 C 2,7 km/h (1 Bft)
14.09.2011 06:00 12,6 C 21,8 C 13,8 C 12,3 C 11,8 C 0,0 C 86 % 85 % 0 % 1012,8 hPa 0,0 l/m 0,4 km/h (0 Bft) N 0,00 h 0,0 UV-I 10,3 C 11,8 C 0,7 km/h (0 Bft)
14.09.2011 07:00 12,9 C 21,7 C 13,8 C 14,2 C 14,1 C 1,3 C 87 % 86 % 33 % 1013,2 hPa 0,0 l/m 0,8 km/h (0 Bft) S 0,42 h 0,0 UV-I 10,9 C 14,1 C 1,5 km/h (1 Bft)
14.09.2011 08:00 14,1 C 21,5 C 14,3 C 15,4 C 15,4 C 1,3 C 83 % 85 % 36 % 1014,0 hPa 0,0 l/m 5,9 km/h (2 Bft) W-SW 0,00 h 0,0 UV-I 11,3 C 15,4 C 8,3 km/h (2 Bft)
14.09.2011 09:00 14,7 C 21,4 C 14,9 C 16,1 C 16,0 C 1,3 C 79 % 81 % 35 % 1014,2 hPa 0,0 l/m 6,9 km/h (2 Bft) W-SW 0,00 h 0,1 UV-I 11,1 C 16,0 C 10,7 km/h (2 Bft)
14.09.2011 10:00 15,4 C 21,3 C 15,4 C 16,3 C 16,3 C 0,9 C 71 % 73 % 23 % 1015,0 hPa 0,0 l/m 9,1 km/h (2 Bft) W-SW 0,00 h 0,0 UV-I 10,2 C 16,3 C 13,5 km/h (3 Bft)
14.09.2011 11:00 16,1 C 21,2 C 16,0 C 16,8 C 17,2 C 0,9 C 65 % 66 % 23 % 1015,5 hPa 0,0 l/m 10,2 km/h (2 Bft) W-SW 0,00 h 0,0 UV-I 9,4 C 17,2 C 14,0 km/h (3 Bft)
14.09.2011 12:00 17,1 C 21,2 C 16,7 C 19,0 C 19,0 C 1,9 C 60 % 62 % 49 % 1015,7 hPa 0,0 l/m 9,9 km/h (2 Bft) W-SW 0,00 h 0,1 UV-I 9,3 C 19,0 C 13,2 km/h (3 Bft)
14.09.2011 13:00 18,2 C 21,1 C 17,3 C 21,1 C 21,1 C 3,0 C 56 % 59 % 78 % 1015,5 hPa 0,0 l/m 9,0 km/h (2 Bft) W-SW 0,25 h 0,1 UV-I 9,1 C 21,1 C 11,7 km/h (2 Bft)
14.09.2011 14:00 19,6 C 21,1 C 21,4 C 22,6 C 22,6 C 3,0 C 51 % 51 % 79 % 1015,4 hPa 0,0 l/m 8,3 km/h (2 Bft) W-SW 0,17 h 0,0 UV-I 9,3 C 22,6 C 10,6 km/h (2 Bft)
14.09.2011 15:00 20,6 C 21,1 C 24,7 C 23,1 C 23,1 C 2,6 C 48 % 40 % 68 % 1015,5 hPa 0,0 l/m 7,7 km/h (2 Bft) W-SW 0,00 h 0,0 UV-I 9,0 C 23,1 C 9,6 km/h (2 Bft)
14.09.2011 16:00 20,7 C 21,2 C 23,0 C 23,3 C 23,3 C 2,6 C 46 % 41 % 68 % 1015,6 hPa 0,0 l/m 6,5 km/h (2 Bft) W-SW 0,00 h 0,0 UV-I 8,5 C 23,3 C 7,9 km/h (2 Bft)
14.09.2011 17:00 19,3 C 21,2 C 20,6 C 22,5 C 22,5 C 3,2 C 48 % 46 % 83 % 1015,9 hPa 0,0 l/m 6,3 km/h (2 Bft) W-SW 0,85 h 0,0 UV-I 8,1 C 22,5 C 7,3 km/h (2 Bft)
14.09.2011 18:00 18,1 C 21,3 C 18,4 C 19,9 C 19,9 C 1,8 C 50 % 51 % 48 % 1016,5 hPa 0,0 l/m 6,1 km/h (2 Bft) W-SW 1,00 h 0,0 UV-I 7,6 C 19,9 C 9,0 km/h (2 Bft)
14.09.2011 19:00 16,4 C 21,2 C 16,7 C 16,4 C 15,9 C 0,2 C 55 % 57 % 5 % 1016,9 hPa 0,0 l/m 2,8 km/h (1 Bft) W-SW 0,33 h 0,0 UV-I 7,5 C 15,9 C 2,5 km/h (1 Bft)
14.09.2011 20:00 13,7 C 21,3 C 14,3 C 13,1 C 12,1 C 0,0 C 67 % 69 % 0 % 1017,6 hPa 0,0 l/m 0,2 km/h (0 Bft) N 0,00 h 0,0 UV-I 7,6 C 12,1 C 0,3 km/h (0 Bft)
14.09.2011 21:00 12,0 C 21,3 C 13,0 C 11,6 C 10,9 C 0,0 C 75 % 76 % 0 % 1017,8 hPa 0,0 l/m 0,1 km/h (0 Bft) N 0,00 h 0,0 UV-I 7,8 C 10,9 C 0,0 km/h (0 Bft)
14.09.2011 22:00 10,6 C 21,3 C 11,9 C 10,1 C 9,3 C 0,0 C 81 % 80 % 0 % 1018,2 hPa 0,0 l/m 0,1 km/h (0 Bft) N 0,00 h 0,0 UV-I 7,5 C 9,3 C 0,0 km/h (0 Bft)
14.09.2011 23:00 9,9 C 21,3 C 11,1 C 9,6 C 8,9 C 0,0 C 83 % 82 % 0 % 1018,5 hPa 0,0 l/m 0,1 km/h (0 Bft) N 0,00 h 0,0 UV-I 7,2 C 8,9 C 0,2 km/h (0 Bft)
15.09.2011 00:00 9,7 C 21,1 C 10,8 C 9,3 C 8,7 C 0,0 C 84 % 83 % 0 % 1018,7 hPa 0,0 l/m 0,0 km/h (0 Bft) N 0,00 h 0,0 UV-I 7,1 C 8,7 C 0,0 km/h (0 Bft)
15.09.2011 01:00 10,2 C 20,9 C 11,3 C 10,2 C 10,1 C 0,0 C 83 % 82 % 0 % 1018,6 hPa 0,0 l/m 0,1 km/h (0 Bft) N 0,00 h 0,0 UV-I 7,5 C 10,1 C 0,0 km/h (0 Bft)
15.09.2011 02:00 10,7 C 20,8 C 11,6 C 10,6 C 10,5 C 0,0 C 82 % 81 % 0 % 1018,4 hPa 0,0 l/m 0,1 km/h (0 Bft) N 0,00 h 0,0 UV-I 7,7 C 10,5 C 0,2 km/h (0 Bft)
15.09.2011 03:00 10,2 C 20,7 C 11,1 C 9,9 C 9,2 C 0,0 C 81 % 81 % 0 % 1018,8 hPa 0,0 l/m 0,1 km/h (0 Bft) N 0,00 h 0,0 UV-I 7,2 C 9,2 C 0,3 km/h (0 Bft)
15.09.2011 04:00 9,9 C 20,5 C 10,8 C 9,7 C 9,3 C 0,0 C 82 % 82 % 0 % 1018,8 hPa 0,0 l/m 0,3 km/h (0 Bft) N 0,00 h 0,0 UV-I 7,0 C 9,3 C 0,8 km/h (0 Bft)
15.09.2011 05:00 10,2 C 20,4 C 11,0 C 10,0 C 9,6 C 0,0 C 81 % 80 % 0 % 1018,8 hPa 0,0 l/m 0,8 km/h (0 Bft) W 0,00 h 0,0 UV-I 7,0 C 9,6 C 2,2 km/h (1 Bft)
15.09.2011 06:00 9,2 C 20,4 C 10,1 C 8,8 C 7,9 C 0,0 C 82 % 82 % 0 % 1018,8 hPa 0,0 l/m 0,0 km/h (0 Bft) N 0,00 h 0,0 UV-I 6,3 C 7,9 C 0,0 km/h (0 Bft)
15.09.2011 07:00 9,5 C 20,3 C 9,9 C 10,6 C 10,5 C 1,2 C 84 % 84 % 33 % 1018,7 hPa 0,0 l/m 0,0 km/h (0 Bft) N 0,42 h 0,0 UV-I 6,8 C 10,5 C 0,0 km/h (0 Bft)
15.09.2011 08:00 11,5 C 20,1 C 11,1 C 13,7 C 13,7 C 2,3 C 79 % 82 % 60 % 1019,1 hPa 0,0 l/m 1,7 km/h (1 Bft) W-SW 0,42 h 0,0 UV-I 7,9 C 13,7 C 3,3 km/h (1 Bft)
15.09.2011 09:00 12,7 C 20,0 C 12,8 C 14,4 C 14,4 C 1,6 C 75 % 77 % 43 % 1019,4 hPa 0,0 l/m 5,4 km/h (1 Bft) SW 0,00 h 0,2 UV-I 8,5 C 14,4 C 9,5 km/h (2 Bft)
15.09.2011 10:00 14,2 C 20,0 C 14,1 C 15,0 C 15,0 C 0,8 C 73 % 74 % 22 % 1019,9 hPa 0,0 l/m 7,0 km/h (2 Bft) W-SW 0,00 h 0,0 UV-I 9,4 C 15,0 C 8,7 km/h (2 Bft)
15.09.2011 11:00 15,6 C 19,9 C 15,4 C 16,9 C 16,9 C 1,3 C 69 % 70 % 34 % 1020,2 hPa 0,0 l/m 7,1 km/h (2 Bft) SW 0,00 h 0,0 UV-I 9,8 C 16,9 C 9,2 km/h (2 Bft)
15.09.2011 12:00 16,6 C 19,9 C 16,4 C 18,3 C 18,3 C 1,7 C 65 % 67 % 45 % 1020,2 hPa 0,0 l/m 7,7 km/h (2 Bft) SW 0,00 h 0,1 UV-I 10,0 C 18,3 C 10,6 km/h (2 Bft)
15.09.2011 13:00 18,1 C 19,9 C 17,3 C 21,3 C 21,3 C 3,3 C 59 % 62 % 82 % 1020,2 hPa 0,0 l/m 8,9 km/h (2 Bft) SW 0,50 h 0,0 UV-I 9,9 C 21,3 C 12,7 km/h (3 Bft)
15.09.2011 14:00 19,4 C 20,0 C 20,8 C 23,3 C 23,3 C 3,9 C 53 % 52 % 96 % 1020,2 hPa 0,0 l/m 7,9 km/h (2 Bft) SW 0,83 h 0,0 UV-I 9,6 C 23,3 C 9,6 km/h (2 Bft)
15.09.2011 15:00 19,0 C 20,0 C 21,5 C 21,2 C 21,2 C 2,2 C 54 % 49 % 57 % 1020,0 hPa 0,0 l/m 6,3 km/h (2 Bft) W-SW 0,25 h 0,0 UV-I 9,4 C 21,2 C 8,3 km/h (2 Bft)
15.09.2011 16:00 19,7 C 20,2 C 21,9 C 22,5 C 22,5 C 2,7 C 50 % 45 % 72 % 1019,9 hPa 0,0 l/m 7,3 km/h (2 Bft) SW 0,00 h 0,0 UV-I 8,9 C 22,5 C 9,9 km/h (2 Bft)
15.09.2011 17:00 18,6 C 20,4 C 19,7 C 21,3 C 21,3 C 2,7 C 52 % 50 % 72 % 1020,0 hPa 0,0 l/m 5,9 km/h (2 Bft) W-SW 0,67 h 0,0 UV-I 8,7 C 21,3 C 7,6 km/h (2 Bft)
15.09.2011 18:00 17,7 C 20,5 C 18,1 C 19,4 C 19,4 C 1,7 C 56 % 56 % 45 % 1020,2 hPa 0,0 l/m 3,5 km/h (1 Bft) W-SW 0,75 h 0,0 UV-I 8,8 C 19,4 C 4,4 km/h (1 Bft)
15.09.2011 19:00 15,4 C 20,6 C 16,0 C 15,1 C 14,4 C 0,1 C 64 % 66 % 2 % 1020,3 hPa 0,0 l/m 0,1 km/h (0 Bft) N 0,08 h 0,0 UV-I 8,7 C 14,4 C 0,0 km/h (0 Bft)
15.09.2011 20:00 12,5 C 20,6 C 13,4 C 11,9 C 10,7 C 0,0 C 76 % 76 % 0 % 1020,9 hPa 0,0 l/m 0,0 km/h (0 Bft) N 0,00 h 0,0 UV-I 8,4 C 10,7 C 0,0 km/h (0 Bft)
15.09.2011 21:00 10,6 C 20,8 C 12,1 C 10,1 C 9,2 C 0,0 C 83 % 81 % 0 % 1021,2 hPa 0,0 l/m 0,0 km/h (0 Bft) N 0,00 h 0,0 UV-I 7,8 C 9,2 C 0,0 km/h (0 Bft)
15.09.2011 22:00 9,2 C 20,8 C 11,0 C 8,8 C 8,1 C 0,0 C 86 % 83 % 0 % 1021,5 hPa 0,0 l/m 0,0 km/h (0 Bft) N 0,00 h 0,0 UV-I 7,1 C 8,1 C 0,1 km/h (0 Bft)
15.09.2011 23:00 8,3 C 20,7 C 10,3 C 8,0 C 7,5 C 0,0 C 88 % 85 % 0 % 1021,6 hPa 0,0 l/m 0,0 km/h (0 Bft) N 0,00 h 0,0 UV-I 6,5 C 7,5 C 0,0 km/h (0 Bft)
16.09.2011 00:00 7,5 C 20,6 C 9,6 C 7,3 C 6,8 C 0,0 C 89 % 85 % 0 % 1021,8 hPa 0,0 l/m 0,0 km/h (0 Bft) N 0,00 h 0,0 UV-I 5,7 C 6,8 C 0,0 km/h (0 Bft)
16.09.2011 01:00 7,1 C 20,6 C 9,2 C 7,0 C 6,7 C 0,0 C 90 % 86 % 0 % 1021,8 hPa 0,0 l/m 0,1 km/h (0 Bft) N 0,00 h 0,0 UV-I 5,6 C 6,7 C 0,3 km/h (0 Bft)
16.09.2011 02:00 6,8 C 20,5 C 8,8 C 6,6 C 6,2 C 0,0 C 90 % 87 % 0 % 1021,7 hPa 0,0 l/m 0,0 km/h (0 Bft) N 0,00 h 0,0 UV-I 5,3 C 6,2 C 0,0 km/h (0 Bft)
16.09.2011 03:00 6,2 C 20,3 C 8,4 C 6,1 C 5,8 C 0,0 C 90 % 87 % 0 % 1022,0 hPa 0,0 l/m 0,0 km/h (0 Bft) N 0,00 h 0,0 UV-I 4,8 C 5,8 C 0,0 km/h (0 Bft)
16.09.2011 04:00 5,9 C 20,2 C 7,9 C 5,7 C 5,3 C 0,0 C 91 % 87 % 0 % 1022,0 hPa 0,0 l/m 0,0 km/h (0 Bft) N 0,00 h 0,0 UV-I 4,6 C 5,3 C 0,0 km/h (0 Bft)
16.09.2011 05:00 5,5 C 20,0 C 7,5 C 5,2 C 4,8 C 0,0 C 91 % 87 % 0 % 1022,1 hPa 0,0 l/m 0,0 km/h (0 Bft) N 0,00 h 0,0 UV-I 4,1 C 4,8 C 0,0 km/h (0 Bft)
16.09.2011 06:00 5,0 C 19,9 C 7,0 C 4,8 C 4,4 C 0,0 C 91 % 88 % 0 % 1021,8 hPa 0,0 l/m 0,0 km/h (0 Bft) N 0,00 h 0,0 UV-I 3,7 C 4,4 C 0,0 km/h (0 Bft)
16.09.2011 07:00 5,4 C 19,7 C 6,9 C 6,0 C 5,9 C 0,7 C 92 % 88 % 19 % 1021,9 hPa 0,0 l/m 0,0 km/h (0 Bft) N 0,25 h 0,0 UV-I 4,1 C 5,9 C 0,0 km/h (0 Bft)
16.09.2011 08:00 6,3 C 19,5 C 7,5 C 8,3 C 8,3 C 2,1 C 93 % 89 % 54 % 1022,0 hPa 0,0 l/m 0,2 km/h (0 Bft) N 0,33 h 0,0 UV-I 5,2 C 8,3 C 0,6 km/h (0 Bft)
16.09.2011 09:00 8,2 C 19,3 C 9,2 C 10,7 C 10,7 C 2,5 C 93 % 90 % 67 % 1022,2 hPa 0,0 l/m 0,7 km/h (0 Bft) W-SW 0,00 h 0,0 UV-I 7,2 C 10,7 C 1,0 km/h (0 Bft)
16.09.2011 10:00 10,5 C 19,1 C 11,3 C 13,1 C 13,1 C 2,6 C 93 % 88 % 69 % 1022,0 hPa 0,0 l/m 0,8 km/h (0 Bft) N-NO 0,00 h 0,0 UV-I 9,4 C 13,1 C 1,8 km/h (1 Bft)
16.09.2011 11:00 13,7 C 18,9 C 13,5 C 15,0 C 15,0 C 1,4 C 79 % 79 % 36 % 1021,7 hPa 0,0 l/m 2,2 km/h (1 Bft) O-SO 0,00 h 0,0 UV-I 10,1 C 15,0 C 3,9 km/h (1 Bft)
16.09.2011 12:00 15,6 C 18,9 C 14,9 C 18,9 C 18,9 C 3,3 C 69 % 72 % 70 % 1021,5 hPa 0,0 l/m 2,0 km/h (1 Bft) O-NO 0,50 h 0,4 UV-I 9,9 C 18,9 C 2,1 km/h (1 Bft)
16.09.2011 13:00 17,3 C 19,0 C 16,0 C 23,3 C 23,3 C 6,0 C 62 % 68 % 100 % 1021,3 hPa 0,0 l/m 1,5 km/h (1 Bft) O-SO 1,00 h 0,0 UV-I 10,0 C 23,3 C 2,3 km/h (1 Bft)
16.09.2011 14:00 17,8 C 19,1 C 18,8 C 23,8 C 23,8 C 6,0 C 60 % 61 % 100 % 1020,5 hPa 0,0 l/m 1,8 km/h (1 Bft) O 1,00 h 0,0 UV-I 9,9 C 23,8 C 2,1 km/h (1 Bft)
16.09.2011 15:00 18,8 C 19,3 C 22,7 C 24,6 C 24,6 C 5,8 C 58 % 49 % 100 % 1019,6 hPa 0,0 l/m 1,2 km/h (1 Bft) O-SO 1,00 h 0,0 UV-I 10,3 C 24,6 C 1,3 km/h (1 Bft)
16.09.2011 16:00 19,0 C 19,4 C 22,2 C 24,6 C 24,6 C 5,7 C 58 % 50 % 100 % 1018,8 hPa 0,0 l/m 1,1 km/h (0 Bft) O-NO 1,00 h 0,0 UV-I 10,4 C 24,6 C 1,4 km/h (1 Bft)
16.09.2011 17:00 18,2 C 19,5 C 19,9 C 23,1 C 23,1 C 4,9 C 60 % 56 % 100 % 1018,3 hPa 0,0 l/m 1,4 km/h (1 Bft) O 1,00 h 0,0 UV-I 10,3 C 23,1 C 1,8 km/h (1 Bft)
16.09.2011 18:00 17,5 C 19,7 C 18,1 C 19,9 C 19,9 C 2,3 C 62 % 62 % 61 % 1018,3 hPa 0,0 l/m 2,3 km/h (1 Bft) O-NO 0,83 h 0,0 UV-I 10,2 C 19,9 C 3,0 km/h (1 Bft)
16.09.2011 19:00 16,0 C 19,8 C 16,2 C 15,7 C 15,2 C 0,0 C 68 % 69 % 0 % 1018,1 hPa 0,0 l/m 3,6 km/h (1 Bft) O-NO 0,00 h 0,0 UV-I 10,1 C 15,2 C 4,5 km/h (1 Bft)
16.09.2011 20:00 14,4 C 20,0 C 14,8 C 14,1 C 13,4 C 0,0 C 72 % 73 % 0 % 1018,3 hPa 0,0 l/m 1,3 km/h (1 Bft) O-NO 0,00 h 0,0 UV-I 9,5 C 13,4 C 1,7 km/h (1 Bft)
16.09.2011 21:00 13,0 C 20,0 C 13,7 C 12,7 C 12,2 C 0,0 C 77 % 77 % 0 % 1018,1 hPa 0,0 l/m 0,3 km/h (0 Bft) N 0,00 h 0,0 UV-I 9,1 C 12,2 C 0,5 km/h (0 Bft)
16.09.2011 22:00 12,7 C 20,0 C 13,5 C 12,6 C 12,4 C 0,0 C 79 % 80 % 0 % 1017,8 hPa 0,0 l/m 0,1 km/h (0 Bft) N 0,00 h 0,0 UV-I 9,2 C 12,4 C 0,4 km/h (0 Bft)
16.09.2011 23:00 13,0 C 20,0 C 13,4 C 12,9 C 12,7 C 0,0 C 80 % 81 % 0 % 1017,2 hPa 0,0 l/m 0,6 km/h (0 Bft) NO 0,00 h 0,0 UV-I 9,6 C 12,7 C 0,7 km/h (0 Bft)
17.09.2011 00:00 12,4 C 20,0 C 12,8 C 12,1 C 11,6 C 0,0 C 81 % 82 % 0 % 1016,7 hPa 0,0 l/m 0,1 km/h (0 Bft) N 0,00 h 0,0 UV-I 9,3 C 11,6 C 0,2 km/h (0 Bft)
17.09.2011 01:00 11,2 C 20,1 C 12,2 C 10,9 C 10,2 C 0,0 C 85 % 84 % 0 % 1016,0 hPa 0,0 l/m 0,0 km/h (0 Bft) N 0,00 h 0,0 UV-I 8,7 C 10,2 C 0,0 km/h (0 Bft)
17.09.2011 02:00 10,2 C 20,1 C 11,4 C 10,0 C 9,6 C 0,0 C 87 % 86 % 0 % 1015,8 hPa 0,0 l/m 0,0 km/h (0 Bft) N 0,00 h 0,0 UV-I 8,2 C 9,6 C 0,0 km/h (0 Bft)
17.09.2011 03:00 10,0 C 20,0 C 11,4 C 10,0 C 9,9 C 0,0 C 89 % 87 % 0 % 1015,7 hPa 0,0 l/m 0,0 km/h (0 Bft) N 0,00 h 0,0 UV-I 8,3 C 9,9 C 0,0 km/h (0 Bft)
17.09.2011 04:00 9,6 C 20,1 C 11,1 C 9,5 C 9,4 C 0,0 C 90 % 88 % 0 % 1015,3 hPa 0,0 l/m 0,0 km/h (0 Bft) N 0,00 h 0,0 UV-I 8,0 C 9,4 C 0,0 km/h (0 Bft)
17.09.2011 05:00 9,6 C 20,0 C 11,0 C 9,6 C 9,5 C 0,0 C 91 % 88 % 0 % 1014,9 hPa 0,0 l/m 0,0 km/h (0 Bft) N 0,00 h 0,0 UV-I 8,1 C 9,5 C 0,0 km/h (0 Bft)
17.09.2011 06:00 9,8 C 19,9 C 11,3 C 10,3 C 10,3 C 0,4 C 92 % 89 % 0 % 1014,6 hPa 0,0 l/m 0,1 km/h (0 Bft) N 0,00 h 0,0 UV-I 8,5 C 10,3 C 0,0 km/h (0 Bft)
17.09.2011 07:00 10,8 C 19,7 C 11,9 C 12,0 C 12,0 C 1,2 C 92 % 89 % 32 % 1014,3 hPa 0,0 l/m 0,0 km/h (0 Bft) N 0,67 h 0,0 UV-I 9,6 C 12,0 C 0,1 km/h (0 Bft)
17.09.2011 08:00 12,5 C 19,6 C 13,0 C 14,0 C 14,0 C 1,5 C 91 % 89 % 40 % 1014,1 hPa 0,0 l/m 0,1 km/h (0 Bft) N 0,00 h 0,0 UV-I 11,1 C 14,0 C 0,2 km/h (0 Bft)
17.09.2011 09:00 15,1 C 19,5 C 14,8 C 17,5 C 17,5 C 2,4 C 88 % 89 % 64 % 1013,9 hPa 0,0 l/m 0,2 km/h (0 Bft) N 0,00 h 0,6 UV-I 13,0 C 17,5 C 1,0 km/h (0 Bft)
17.09.2011 10:00 19,3 C 19,4 C 17,7 C 21,6 C 21,6 C 2,4 C 76 % 82 % 63 % 1013,7 hPa 0,0 l/m 1,5 km/h (1 Bft) SO 0,00 h 0,0 UV-I 15,0 C 21,6 C 4,5 km/h (1 Bft)
17.09.2011 11:00 21,3 C 19,5 C 19,6 C 23,5 C 23,5 C 2,3 C 71 % 77 % 61 % 1013,1 hPa 0,0 l/m 2,2 km/h (1 Bft) S 0,00 h 0,0 UV-I 15,7 C 23,5 C 3,8 km/h (1 Bft)
17.09.2011 12:00 22,8 C 19,7 C 21,1 C 25,5 C 25,5 C 2,7 C 65 % 73 % 70 % 1012,8 hPa 0,0 l/m 4,3 km/h (1 Bft) SW 0,25 h 0,1 UV-I 16,0 C 25,5 C 8,6 km/h (2 Bft)
17.09.2011 13:00 25,0 C 19,9 C 22,8 C 29,3 C 29,3 C 4,4 C 60 % 67 % 99 % 1012,2 hPa 0,0 l/m 4,1 km/h (1 Bft) SO 1,00 h 0,0 UV-I 16,8 C 29,3 C 7,9 km/h (2 Bft)
17.09.2011 14:00 23,9 C 20,2 C 22,7 C 24,8 C 24,8 C 1,0 C 63 % 68 % 26 % 1012,0 hPa 0,0 l/m 6,2 km/h (2 Bft) W-SW 0,00 h 0,0 UV-I 16,3 C 24,8 C 8,2 km/h (2 Bft)
17.09.2011 15:00 24,1 C 20,4 C 24,2 C 26,1 C 26,1 C 2,0 C 62 % 62 % 53 % 1011,8 hPa 0,0 l/m 5,6 km/h (1 Bft) W 0,00 h 0,0 UV-I 16,3 C 26,1 C 6,6 km/h (2 Bft)
17.09.2011 16:00 23,6 C 20,6 C 22,8 C 24,3 C 24,3 C 0,7 C 63 % 67 % 19 % 1011,5 hPa 0,0 l/m 3,2 km/h (1 Bft) W-SW 0,00 h 0,0 UV-I 16,2 C 24,3 C 4,7 km/h (1 Bft)
17.09.2011 17:00 23,6 C 20,8 C 23,1 C 25,7 C 25,7 C 2,0 C 63 % 66 % 53 % 1011,1 hPa 0,0 l/m 3,0 km/h (1 Bft) SO 0,08 h 0,0 UV-I 16,1 C 25,7 C 4,3 km/h (1 Bft)
17.09.2011 18:00 22,8 C 21,1 C 21,7 C 22,9 C 22,9 C 0,2 C 65 % 70 % 6 % 1010,7 hPa 0,0 l/m 1,0 km/h (0 Bft) W-SW 0,00 h 0,0 UV-I 15,8 C 22,9 C 2,0 km/h (1 Bft)
17.09.2011 19:00 20,8 C 21,3 C 20,1 C 20,5 C 19,9 C 0,0 C 72 % 77 % 0 % 1010,0 hPa 0,0 l/m 0,0 km/h (0 Bft) N 0,00 h 0,0 UV-I 15,6 C 19,9 C 0,0 km/h (0 Bft)
17.09.2011 20:00 18,6 C 21,5 C 18,5 C 18,4 C 18,0 C 0,0 C 80 % 82 % 0 % 1009,4 hPa 0,0 l/m 0,0 km/h (0 Bft) N 0,00 h 0,0 UV-I 15,0 C 18,0 C 0,0 km/h (0 Bft)
17.09.2011 21:00 18,0 C 21,7 C 18,1 C 17,9 C 17,6 C 0,0 C 84 % 86 % 0 % 1009,3 hPa 0,0 l/m 0,8 km/h (0 Bft) N-NO 0,00 h 0,0 UV-I 15,3 C 17,6 C 1,2 km/h (1 Bft)
17.09.2011 22:00 17,6 C 21,9 C 17,3 C 17,3 C 16,8 C 0,0 C 86 % 89 % 0 % 1009,3 hPa 5,5 l/m 1,4 km/h (1 Bft) N-NO 0,00 h 0,0 UV-I 15,2 C 16,8 C 1,9 km/h (1 Bft)
17.09.2011 23:00 16,7 C 22,0 C 16,3 C 16,5 C 16,2 C 0,0 C 89 % 95 % 0 % 1008,4 hPa 9,6 l/m 1,6 km/h (1 Bft) O 0,00 h 0,0 UV-I 14,9 C 16,2 C 1,9 km/h (1 Bft)
18.09.2011 00:00 16,5 C 22,0 C 16,4 C 16,5 C 16,4 C 0,0 C 91 % 95 % 0 % 1008,2 hPa 4,1 l/m 0,4 km/h (0 Bft) S 0,00 h 0,0 UV-I 15,0 C 16,4 C 1,2 km/h (1 Bft)
18.09.2011 01:00 16,3 C 22,0 C 16,3 C 16,2 C 16,1 C 0,0 C 91 % 95 % 0 % 1007,7 hPa 1,4 l/m 0,3 km/h (0 Bft) N 0,00 h 0,0 UV-I 14,8 C 16,1 C 0,7 km/h (0 Bft)
18.09.2011 02:00 16,1 C 22,0 C 16,1 C 16,0 C 15,9 C 0,0 C 92 % 96 % 0 % 1006,9 hPa 2,1 l/m 0,0 km/h (0 Bft) N 0,00 h 0,0 UV-I 14,7 C 15,9 C 0,0 km/h (0 Bft)
18.09.2011 03:00 15,7 C 21,9 C 15,8 C 15,6 C 15,4 C 0,0 C 92 % 96 % 0 % 1005,9 hPa 0,0 l/m 0,0 km/h (0 Bft) N 0,00 h 0,0 UV-I 14,4 C 15,4 C 0,0 km/h (0 Bft)
18.09.2011 04:00 15,3 C 21,9 C 15,4 C 15,2 C 14,9 C 0,0 C 92 % 95 % 0 % 1005,3 hPa 0,0 l/m 0,1 km/h (0 Bft) N 0,00 h 0,0 UV-I 14,0 C 14,9 C 0,0 km/h (0 Bft)
18.09.2011 05:00 15,0 C 21,8 C 15,2 C 15,0 C 14,9 C 0,0 C 93 % 95 % 0 % 1004,3 hPa 0,0 l/m 0,1 km/h (0 Bft) N-NO 0,00 h 0,0 UV-I 13,8 C 14,9 C 0,3 km/h (0 Bft)
18.09.2011 06:00 15,1 C 21,8 C 15,2 C 15,1 C 15,0 C 0,0 C 93 % 95 % 0 % 1003,3 hPa 0,0 l/m 0,2 km/h (0 Bft) N 0,00 h 0,0 UV-I 14,0 C 15,0 C 0,0 km/h (0 Bft)
18.09.2011 07:00 15,2 C 21,7 C 15,4 C 15,3 C 15,3 C 0,1 C 93 % 96 % 2 % 1003,6 hPa 3,4 l/m 1,1 km/h (1 Bft) S-SO 0,00 h 0,0 UV-I 14,1 C 15,3 C 2,6 km/h (1 Bft)
18.09.2011 08:00 15,8 C 21,7 C 15,7 C 16,1 C 16,1 C 0,3 C 94 % 96 % 8 % 1003,6 hPa 3,4 l/m 0,1 km/h (0 Bft) N 0,00 h 0,0 UV-I 14,8 C 16,1 C 0,0 km/h (0 Bft)
18.09.2011 09:00 16,6 C 21,6 C 16,3 C 17,9 C 17,9 C 1,3 C 94 % 96 % 34 % 1003,1 hPa 0,0 l/m 0,0 km/h (0 Bft) N 0,00 h 0,0 UV-I 15,6 C 17,9 C 0,0 km/h (0 Bft)
18.09.2011 10:00 17,2 C 21,5 C 16,8 C 19,0 C 19,0 C 1,8 C 94 % 96 % 46 % 1002,7 hPa 0,0 l/m 0,2 km/h (0 Bft) N 0,00 h 0,0 UV-I 16,3 C 19,0 C 0,2 km/h (0 Bft)
18.09.2011 11:00 17,2 C 21,5 C 16,7 C 18,3 C 18,3 C 1,1 C 93 % 96 % 29 % 1002,8 hPa 0,0 l/m 0,4 km/h (0 Bft) N 0,00 h 0,0 UV-I 16,1 C 18,3 C 0,8 km/h (0 Bft)
18.09.2011 12:00 17,0 C 21,5 C 16,4 C 17,6 C 17,6 C 0,6 C 92 % 96 % 16 % 1002,7 hPa 0,0 l/m 0,5 km/h (0 Bft) W-SW 0,00 h 0,0 UV-I 15,6 C 17,6 C 1,3 km/h (1 Bft)
18.09.2011 13:00 15,9 C 21,5 C 15,3 C 15,7 C 15,2 C 0,0 C 89 % 95 % 0 % 1003,0 hPa 1,4 l/m 3,3 km/h (1 Bft) S 0,00 h 0,0 UV-I 14,1 C 15,2 C 3,1 km/h (1 Bft)
18.09.2011 14:00 14,9 C 21,6 C 14,8 C 14,9 C 14,7 C 0,0 C 91 % 96 % 0 % 1003,3 hPa 2,1 l/m 0,7 km/h (0 Bft) O-SO 0,00 h 0,0 UV-I 13,4 C 14,7 C 0,6 km/h (0 Bft)
18.09.2011 15:00 14,7 C 21,6 C 14,7 C 14,7 C 14,6 C 0,0 C 92 % 96 % 0 % 1003,4 hPa 1,4 l/m 0,8 km/h (0 Bft) S 0,00 h 0,0 UV-I 13,4 C 14,6 C 3,4 km/h (1 Bft)
18.09.2011 16:00 12,1 C 21,4 C 12,0 C 11,9 C 11,2 C 0,0 C 89 % 96 % 0 % 1004,5 hPa 1,4 l/m 5,7 km/h (1 Bft) W-SW 0,00 h 0,0 UV-I 10,4 C 11,2 C 6,3 km/h (2 Bft)
18.09.2011 17:00 11,8 C 21,3 C 12,1 C 11,8 C 11,7 C 0,0 C 92 % 96 % 0 % 1005,2 hPa 0,7 l/m 1,0 km/h (0 Bft) W-SW 0,00 h 0,0 UV-I 10,5 C 11,7 C 0,7 km/h (0 Bft)
18.09.2011 18:00 11,9 C 21,1 C 12,4 C 11,9 C 11,8 C 0,0 C 92 % 96 % 0 % 1005,9 hPa 0,0 l/m 0,4 km/h (0 Bft) N 0,00 h 0,0 UV-I 10,7 C 11,8 C 0,4 km/h (0 Bft)
18.09.2011 19:00 11,7 C 20,9 C 12,1 C 11,6 C 11,3 C 0,0 C 92 % 96 % 0 % 1006,4 hPa 0,7 l/m 1,2 km/h (1 Bft) S-SO 0,00 h 0,0 UV-I 10,4 C 11,3 C 2,0 km/h (1 Bft)
18.09.2011 20:00 11,5 C 20,7 C 11,7 C 11,3 C 11,1 C 0,0 C 92 % 96 % 0 % 1006,6 hPa 0,0 l/m 1,4 km/h (1 Bft) W-SW 0,00 h 0,0 UV-I 10,2 C 11,1 C 2,8 km/h (1 Bft)
18.09.2011 21:00 11,5 C 20,5 C 11,6 C 11,4 C 11,2 C 0,0 C 92 % 96 % 0 % 1007,4 hPa 0,0 l/m 0,9 km/h (0 Bft) O-NO 0,00 h 0,0 UV-I 10,2 C 11,2 C 1,8 km/h (1 Bft)
18.09.2011 22:00 11,3 C 20,4 C 11,6 C 11,2 C 11,1 C 0,0 C 92 % 96 % 0 % 1007,4 hPa 0,0 l/m 1,0 km/h (0 Bft) SO 0,00 h 0,0 UV-I 10,1 C 11,1 C 1,6 km/h (1 Bft)
18.09.2011 23:00 11,2 C 20,2 C 11,5 C 11,1 C 10,9 C 0,0 C 92 % 96 % 0 % 1008,3 hPa 0,0 l/m 1,0 km/h (0 Bft) S 0,00 h 0,0 UV-I 9,9 C 10,9 C 0,6 km/h (0 Bft)
Min-Datum _ 16.09.11 16.09.11 16.09.11 16.09.11 16.09.11 12.09.11 14.09.11 14.09.11 12.09.11 18.09.11 - 14.09.11 - - 12.09.11 16.09.11 16.09.11 12.09.11
_ Min-Zeit 06:10 10:50 06:40 06:10 06:10 00:00 16:25 15:35 00:00 10:30 - 03:10 - - 00:00 06:10 06:10 00:30
Minimum _ 4,9 C 18,9 C 6,8 C 4,7 C 4,2 C 0,0 C 44 % 38 % 0 % 1002,5 hPa - 0,0 km/h (0 Bft) - - 0,0 UV-I 3,6 C 4,2 C 0,0 km/h (0 Bft)
Max-Datum _ 17.09.11 12.09.11 12.09.11 17.09.11 17.09.11 16.09.11 18.09.11 18.09.11 12.09.11 16.09.11 17.09.11 14.09.11 - 15.09.11 13.09.11 17.09.11 17.09.11 13.09.11
_ Max-Zeit 13:30 00:00 15:45 13:35 13:35 13:45 10:25 02:20 13:00 03:10 23:10 11:45 - 08:16 09:10 13:20 13:35 14:30
Maximum _ 25,2 C 23,5 C 27,1 C 30,2 C 30,2 C 6,5 C 95 % 96 % 100 % 1022,3 hPa 9,6 l/m 13,2 km/h
W-SW (3 Bft)
- 0,22 h 2,4 UV-I 17,1 C 30,2 C 28,0 km/h
W-SW (4 Bft)
Durchschnitt _ 15,6 C 21,1 C 16,1 C 16,5 C 16,3 C 1,0 C 77 % 78 % 24 % 1013,5 hPa #38,5 l/m 2,7 km/h (1 Bft) W-SW #20:51 h 0,3 UV-I 11,3 C 16,3 C 3,9 km/h (1 Bft)
2013 www.wetterstation-wechselburg.de